Abdalli, Turkey

5:00 AM +03 on September 20, 2017 (GMT +0300)
Sivas | | Change Station

Elev 4170 ft 39.80 °N, 36.89 °E | Updated 1 hour ago

Clear
Clear
63 °F
Feels Like 63 °F
N
0
Wind Variable Wind from North

Today
High -- | Low -- °F
--% Chance of Precip.
Yesterday
High -- | Low -- °F
Precip. -- in
Pressure 30.12 in
Visibility -9999.0 miles
Clouds
Dew Point 32 °F
Humidity 32%
Rainfall 0.00 in
Snow Depth Not available.
6:19 AM 6:34 PM
Waning Crescent, 0% visible
METAR LTAR 200050Z 00000KT CAVOK 17/M00 Q1020
Pressure 30.12 in
Visibility -9999.0 miles
Clouds
Dew Point 32 °F
Humidity 32%
Rainfall 0.00 in
Snow Depth Not available.
6:19 AM 6:34 PM
Waning Crescent, 0% visible
METAR LTAR 200050Z 00000KT CAVOK 17/M00 Q1020

Get Severe Weather Alerts

Thanks for signing up!

Be on the lookout for a verification email in your inbox.

You'll start receiving the daily forecast at 6 AM.

×

10-Day Weather Forecast

×

Almanac

Astronomy

Sep. 20, 2017 Rise Set
Actual Time
Civil Twilight
Nautical Twilight
Astronomical Twilight
Moon
Length of Visible Light
Length of Day
Tomorrow will be .
, % of the Moon is Illuminated

Today's Extremes

Country Highs Country Lows

Community

WunderPhotos

Category 6

Welcome to Category 6. This is the collective home for Weather Underground's featured writeups by Dr. Jeff Masters (right), Bob Henson (left), Chris Burt, and other regular contributors.

Nearby

Air Quality

  Air Quality AQ Index Pollutant
Not available.

Snow Depth

Station Depth Elevation

Earthquake Activity

City Distance Mag. Time & Date
Minimum magnitude displayed is 2.5.

Coastal Water Temperatures

Place Temperature

Stations

Nearby Weather Stations

Station Location Temp. Windchill Dew Point Humidity Wind Precip. Elev Updated Type